Amalga, UT

10:35 AM MDT on August 22, 2014 (GMT -0600)
Northwest Smithfield | Change Station
CLOSE
Current Station
Personal Weather Station
Location: Smithfield, UT
Elevation: 4590 ft
Nearby Weather Stations

Elev 4590 ft 41.84 °N, 111.84 °W | Updated 12 minutes ago

Scattered Clouds
Scattered Clouds
64.4 °F
Feels Like 64.4 °F
N
0.0
Wind Variable Wind from SW

Today
High -- | Low -- °F
--% Chance of Precip.
Yesterday
High -- | Low -- °F
Precip. -- in
6:43 AM 8:16 PM
Waning Crescent, 7% visible
Pressure 29.92 in
Visibility 10.0 miles
Clouds Few 7500 ft
Scattered Clouds 9000 ft
Scattered Clouds 12000 ft
Dew Point 56 °F
Humidity 73%
Rainfall 0.00 in
Snow Depth 0 in , 0 in
UV 3 out of 12
Pollen 7.90 out of 12
Ozone Good
PM2.5 Good
Flu Activity Not available.
METAR KLGU 221551Z AUTO 00000KT 10SM FEW075 SCT090 SCT120 17/12 A3005 RMK AO2 RAE19 SLP132 P0000 T01670122

More Conditions Fewer Conditions

Pressure 29.92 in
Visibility 10.0 miles
Clouds Few 7500 ft
Scattered Clouds 9000 ft
Scattered Clouds 12000 ft
Dew Point 56 °F
Humidity 73%
Rainfall 0.00 in
Snow Depth 0 in , 0 in
UV 3 out of 12
Pollen 7.90 out of 12
Ozone Good
PM2.5 Good
Flu Activity Not available.
METAR KLGU 221551Z AUTO 00000KT 10SM FEW075 SCT090 SCT120 17/12 A3005 RMK AO2 RAE19 SLP132 P0000 T01670122

More Conditions Fewer Conditions

10-Day Weather Forecast

Almanac

Astronomy

Aug. 22, 2014 Rise Set
Actual Time 6:43 AM MDT 8:16 PM MDT
Civil Twilight 6:13 AM MDT 8:46 PM MDT
Nautical Twilight 5:38 AM MDT 9:21 PM MDT
Astronomical Twilight 5:00 AM MDT 9:59 PM MDT
Moon 4:07 AM MDT 6:28 PM MDT
Length of Visible Light 14h 32m
Length of Day
13h 33m
Tomorrow will be 2m 36s shorter.
Waning Crescent, 7% of the Moon is Illuminated
Today
Waning Crescent
Aug 25
New
Sep 2
First Quarter
Sep 8
Full
Sep 15
Last Quarter

Today's Extremes

State Highs State Lows

Community

WunderPhotos

Upload Photos

1,746,195 photos uploaded!

Nearby

Air Quality

  Air Quality AQ Index Pollutant
Yesterday Good
PM2.5
Current Good
OZONE
Current Good
PM2.5

Snow Depth

Station Depth Elevation
Tony Grove Lake 0 in 8400 ft
Temple Fork 0 in 7406 ft
Little Bear 0 in 6550 ft
Ben Lomond Trail 2 in 6000 ft
Monte Cristo 0 in 8960 ft

Earthquake Activity

City Distance Mag. Time & Date
No recent earthquake activity has been reported nearby.
Minimum magnitude displayed is 2.5.

Coastal Water Temperatures

Place Temperature
No Stations Reporting

Nearby Weather Stations